createdAt,value
2019-05-06T00:01:45.108Z,62.98
2019-05-06T00:04:16.627Z,63.19
2019-05-06T00:06:48.259Z,63.09
2019-05-06T00:09:18.940Z,62.99
2019-05-06T00:11:49.465Z,63.08
2019-05-06T00:14:19.998Z,63.32
2019-05-06T00:16:50.570Z,63.20
2019-05-06T00:19:24.652Z,63.55
2019-05-06T00:21:55.374Z,63.89
2019-05-06T00:24:27.606Z,64.00
2019-05-06T00:26:59.633Z,64.53
2019-05-06T00:29:30.704Z,64.64
2019-05-06T00:32:01.358Z,65.03
2019-05-06T00:34:34.106Z,65.08
2019-05-06T00:37:04.821Z,65.13
2019-05-06T00:39:46.164Z,65.12
2019-05-06T00:42:20.939Z,65.10
2019-05-06T00:44:53.650Z,65.13
2019-05-06T00:47:24.584Z,65.12
2019-05-06T00:49:55.359Z,65.17
2019-05-06T00:52:26.085Z,65.46
2019-05-06T00:54:56.630Z,65.58
2019-05-06T00:57:28.753Z,65.73
2019-05-06T01:00:00.185Z,65.40
2019-05-06T01:02:30.659Z,65.64
2019-05-06T01:05:01.254Z,65.78
2019-05-06T01:07:31.707Z,65.95
2019-05-06T01:10:03.802Z,66.06
2019-05-06T01:12:39.250Z,66.34
2019-05-06T01:15:14.228Z,66.40
2019-05-06T01:17:45.302Z,66.50
2019-05-06T01:20:17.170Z,66.63
2019-05-06T01:22:47.623Z,66.77
2019-05-06T01:25:18.256Z,66.89
2019-05-06T01:27:49.765Z,67.09
2019-05-06T01:30:20.442Z,67.23
2019-05-06T01:32:50.989Z,67.50
2019-05-06T01:35:21.536Z,67.68
2019-05-06T01:38:12.089Z,67.81
2019-05-06T01:40:48.024Z,68.02
2019-05-06T01:43:20.205Z,68.12
2019-05-06T01:45:50.893Z,68.31
2019-05-06T01:48:41.060Z,68.46
2019-05-06T01:51:14.293Z,68.75
2019-05-06T01:53:45.166Z,68.98
2019-05-06T01:56:17.891Z,69.05
2019-05-06T01:58:48.405Z,69.25
2019-05-06T02:01:18.928Z,69.32
2019-05-06T02:03:49.496Z,69.43
2019-05-06T02:06:20.988Z,69.41
2019-05-06T02:08:53.977Z,69.73
2019-05-06T02:11:24.732Z,69.69
2019-05-06T02:13:55.251Z,69.82
2019-05-06T02:16:26.788Z,69.87
2019-05-06T02:18:57.280Z,70.00
2019-05-06T02:21:29.346Z,70.08
2019-05-06T02:24:16.588Z,70.25
2019-05-06T02:26:48.190Z,70.31
2019-05-06T02:29:24.695Z,70.39
2019-05-06T02:32:25.628Z,70.22
2019-05-06T02:34:49.187Z,70.25
2019-05-06T02:37:25.165Z,70.42
2019-05-06T02:39:54.473Z,70.41
2019-05-06T02:42:24.966Z,70.25
2019-05-06T02:44:55.552Z,70.49
2019-05-06T02:47:36.707Z,70.52
2019-05-06T02:50:08.793Z,70.99
2019-05-06T02:52:43.770Z,71.14
2019-05-06T02:55:13.022Z,71.71
2019-05-06T02:57:44.076Z,71.47
2019-05-06T03:00:16.085Z,71.84
2019-05-06T03:02:49.102Z,71.69
2019-05-06T03:05:23.514Z,71.71
2019-05-06T03:07:57.054Z,71.71
2019-05-06T03:10:27.280Z,71.40
2019-05-06T03:12:58.793Z,70.94
2019-05-06T03:15:29.262Z,71.36
2019-05-06T03:17:59.704Z,71.32
2019-05-06T03:20:57.609Z,70.82
2019-05-06T03:23:38.899Z,71.12
2019-05-06T03:26:09.422Z,70.99
2019-05-06T03:28:39.879Z,71.17
2019-05-06T03:31:15.306Z,70.70
2019-05-06T03:34:03.535Z,71.21
2019-05-06T03:36:24.994Z,71.53
2019-05-06T03:38:47.691Z,71.20
2019-05-06T03:41:18.198Z,70.89
2019-05-06T03:43:48.680Z,71.22
2019-05-06T03:46:26.777Z,71.44
2019-05-06T03:49:03.726Z,71.78
2019-05-06T03:51:34.650Z,71.54
2019-05-06T03:54:07.413Z,71.32
2019-05-06T03:56:38.321Z,70.66
2019-05-06T03:59:10.090Z,70.64
2019-05-06T04:01:42.967Z,70.83
2019-05-06T04:04:12.819Z,71.32
2019-05-06T04:06:43.790Z,71.00
2019-05-06T04:09:14.360Z,71.62
2019-05-06T04:11:45.753Z,72.34
2019-05-06T04:14:17.994Z,73.46
2019-05-06T04:16:59.232Z,73.37
2019-05-06T04:19:34.605Z,73.84
2019-05-06T04:22:23.512Z,73.92
2019-05-06T04:25:13.796Z,73.65
2019-05-06T04:27:44.509Z,73.87
2019-05-06T04:30:17.390Z,73.87
2019-05-06T04:32:47.909Z,74.37
2019-05-06T04:35:22.941Z,74.05
2019-05-06T04:37:54.256Z,74.38
2019-05-06T04:40:32.937Z,74.25
2019-05-06T04:43:03.592Z,74.29
2019-05-06T04:45:35.272Z,73.60
2019-05-06T04:48:05.826Z,74.06
2019-05-06T04:50:49.183Z,74.13
2019-05-06T04:53:27.012Z,74.11
2019-05-06T04:55:57.942Z,74.07
2019-05-06T04:58:28.531Z,73.31
2019-05-06T05:00:59.026Z,73.65
2019-05-06T05:03:33.569Z,73.60
2019-05-06T05:06:05.735Z,72.88
2019-05-06T05:08:38.401Z,72.80
2019-05-06T05:11:22.859Z,72.66
2019-05-06T05:14:10.234Z,73.06
2019-05-06T05:16:58.626Z,72.44
2019-05-06T05:19:32.682Z,72.33
2019-05-06T05:22:06.352Z,72.26
2019-05-06T05:24:37.243Z,72.37
2019-05-06T05:27:07.906Z,71.88
2019-05-06T05:29:38.860Z,71.93
2019-05-06T05:32:09.375Z,71.80
2019-05-06T05:34:40.936Z,71.80
2019-05-06T05:37:12.697Z,70.92
2019-05-06T05:39:43.117Z,70.65
2019-05-06T05:42:15.269Z,70.30
2019-05-06T05:44:47.298Z,70.33
2019-05-06T05:53:14.500Z,70.12
2019-05-06T05:55:45.189Z,69.76
2019-05-06T05:58:16.032Z,69.23
2019-05-06T06:00:46.641Z,68.94
2019-05-06T06:03:17.333Z,68.81
2019-05-06T06:05:47.811Z,68.12
2019-05-06T06:08:22.871Z,67.59
2019-05-06T06:10:54.664Z,67.88
2019-05-06T06:13:26.178Z,67.17
2019-05-06T06:15:58.384Z,66.61
2019-05-06T06:18:39.746Z,65.72
2019-05-06T06:21:24.881Z,64.95
2019-05-06T06:23:52.865Z,63.28
2019-05-06T06:26:23.582Z,60.61
2019-05-06T06:28:54.135Z,62.70
2019-05-06T06:31:30.404Z,58.49
2019-05-06T06:34:02.473Z,52.12
2019-05-06T06:36:49.612Z,51.99
2019-05-06T06:39:28.815Z,55.50
2019-05-06T06:41:59.302Z,54.51
2019-05-06T06:44:33.095Z,48.25
2019-05-06T06:47:05.814Z,49.17
2019-05-06T06:49:38.314Z,48.35
2019-05-06T06:52:14.863Z,45.84
2019-05-06T06:54:46.668Z,45.21
2019-05-06T06:57:30.974Z,43.49
2019-05-06T07:00:04.618Z,48.35
2019-05-06T07:02:39.043Z,50.78
2019-05-06T07:05:25.483Z,49.72
2019-05-06T07:07:53.240Z,49.51
2019-05-06T07:10:43.230Z,49.24
2019-05-06T07:13:17.047Z,48.35
2019-05-06T07:15:47.540Z,48.12
2019-05-06T07:18:18.073Z,49.98
2019-05-06T07:20:52.859Z,51.03
2019-05-06T07:23:29.014Z,52.08
2019-05-06T07:26:04.182Z,50.73
2019-05-06T07:28:36.816Z,48.04
2019-05-06T07:31:18.765Z,46.94
2019-05-06T07:33:39.461Z,49.23
2019-05-06T07:36:09.971Z,50.27
2019-05-06T07:38:42.761Z,49.58
2019-05-06T07:41:15.277Z,48.69
2019-05-06T07:43:52.389Z,48.24
2019-05-06T07:46:29.696Z,49.43
2019-05-06T07:49:02.986Z,49.13
2019-05-06T07:51:33.295Z,49.71
2019-05-06T07:54:04.908Z,50.72
2019-05-06T07:56:35.438Z,49.17
2019-05-06T07:59:09.539Z,46.37
2019-05-06T08:01:43.490Z,47.33
2019-05-06T08:04:13.785Z,48.46
2019-05-06T08:06:44.297Z,48.22
2019-05-06T08:09:22.125Z,48.37
2019-05-06T08:11:53.157Z,47.88
2019-05-06T08:14:25.555Z,47.92
2019-05-06T08:16:57.661Z,48.39
2019-05-06T08:19:29.783Z,48.87
2019-05-06T08:22:13.526Z,47.84
2019-05-06T08:24:44.074Z,46.46
2019-05-06T08:27:14.552Z,47.51
2019-05-06T08:29:45.059Z,47.25
2019-05-06T08:32:15.512Z,47.25
2019-05-06T08:34:47.089Z,45.62
2019-05-06T08:37:22.758Z,45.78
2019-05-06T08:39:53.394Z,45.59
2019-05-06T08:42:23.953Z,44.02
2019-05-06T08:44:54.520Z,44.42
2019-05-06T08:47:25.141Z,43.82
2019-05-06T08:50:03.316Z,44.73
2019-05-06T08:52:36.305Z,44.03
2019-05-06T08:55:06.872Z,43.01
2019-05-06T08:57:37.458Z,43.44
2019-05-06T09:00:09.056Z,44.12
2019-05-06T09:02:42.065Z,43.48
2019-05-06T09:05:12.275Z,44.38
2019-05-06T09:07:44.531Z,44.60
2019-05-06T09:10:15.750Z,44.55
2019-05-06T09:12:46.263Z,44.21
2019-05-06T09:15:17.128Z,44.40
2019-05-06T09:17:47.803Z,43.43
2019-05-06T09:20:18.366Z,43.50
2019-05-06T09:22:48.835Z,43.05
2019-05-06T09:25:19.607Z,43.34
2019-05-06T09:27:52.662Z,43.66
2019-05-06T09:30:48.659Z,42.89
2019-05-06T09:33:22.512Z,42.60
2019-05-06T09:35:54.352Z,41.88
2019-05-06T09:38:24.825Z,42.37
2019-05-06T09:40:56.288Z,41.71
2019-05-06T09:43:26.893Z,41.55
2019-05-06T09:45:58.439Z,41.66
2019-05-06T09:48:43.727Z,41.37
2019-05-06T09:51:15.379Z,41.04
2019-05-06T09:54:07.135Z,40.63
2019-05-06T09:56:44.457Z,40.69
2019-05-06T09:59:16.079Z,40.93
2019-05-06T10:01:48.604Z,41.43
2019-05-06T10:04:19.181Z,41.29
2019-05-06T10:06:57.171Z,41.34
2019-05-06T10:09:24.853Z,41.35
2019-05-06T10:11:57.121Z,40.57
2019-05-06T10:14:29.491Z,40.31
2019-05-06T10:16:59.982Z,39.43
2019-05-06T10:19:33.309Z,39.62
2019-05-06T10:22:06.162Z,39.26
2019-05-06T10:24:37.748Z,39.45
2019-05-06T10:27:12.261Z,39.43
2019-05-06T10:29:52.312Z,38.84
2019-05-06T10:32:33.784Z,38.52
2019-05-06T10:35:06.850Z,39.00
2019-05-06T10:37:42.258Z,39.35
2019-05-06T10:40:26.295Z,39.12
2019-05-06T10:43:03.186Z,38.67
2019-05-06T10:45:34.349Z,38.75
2019-05-06T10:48:07.552Z,38.42
2019-05-06T10:50:43.583Z,38.33
2019-05-06T10:53:18.179Z,38.83
2019-05-06T10:55:53.585Z,38.96
2019-05-06T10:58:27.179Z,38.86
2019-05-06T11:01:13.486Z,39.14
2019-05-06T11:03:45.044Z,39.73
2019-05-06T11:06:15.618Z,39.60
2019-05-06T11:08:46.332Z,38.69
2019-05-06T11:11:31.795Z,38.19
2019-05-06T11:13:49.426Z,38.55
2019-05-06T11:16:23.700Z,37.63
2019-05-06T11:18:55.285Z,38.26
2019-05-06T11:21:26.244Z,38.79
2019-05-06T11:23:56.830Z,38.96
2019-05-06T11:26:31.491Z,38.55
2019-05-06T11:29:07.236Z,38.67
2019-05-06T11:31:43.244Z,38.43
2019-05-06T11:34:32.628Z,38.76
2019-05-06T11:37:05.072Z,38.91
2019-05-06T11:39:35.578Z,38.44
2019-05-06T11:42:24.969Z,39.25
2019-05-06T11:44:38.565Z,39.76
2019-05-06T11:47:09.210Z,39.53
2019-05-06T11:49:39.791Z,39.52
2019-05-06T11:52:12.891Z,39.44
2019-05-06T11:54:44.537Z,38.94
2019-05-06T11:57:15.165Z,38.39
2019-05-06T11:59:46.658Z,39.19
2019-05-06T12:02:22.551Z,38.45
2019-05-06T12:04:53.123Z,39.41
2019-05-06T12:07:24.449Z,39.32
2019-05-06T12:09:55.432Z,39.21
2019-05-06T12:12:25.915Z,39.67
2019-05-06T12:14:58.556Z,39.19
2019-05-06T12:17:29.757Z,39.47
2019-05-06T12:20:02.988Z,39.10
2019-05-06T12:22:37.364Z,38.98
2019-05-06T12:25:11.709Z,39.55
2019-05-06T12:27:45.735Z,39.29
2019-05-06T12:30:23.111Z,39.38
2019-05-06T12:33:05.564Z,39.62
2019-05-06T12:35:37.612Z,39.94
2019-05-06T12:38:23.823Z,38.65
2019-05-06T12:40:44.087Z,38.90
2019-05-06T12:43:26.362Z,38.50
2019-05-06T12:46:02.839Z,38.82
2019-05-06T12:48:38.916Z,38.74
2019-05-06T12:51:10.599Z,38.87
2019-05-06T12:53:43.077Z,38.77
2019-05-06T12:56:13.662Z,38.36
2019-05-06T12:58:45.496Z,38.73
2019-05-06T13:01:16.057Z,38.76
2019-05-06T13:03:53.684Z,39.26
2019-05-06T13:06:26.337Z,39.14
2019-05-06T13:09:01.828Z,39.22
2019-05-06T13:11:36.194Z,39.08
2019-05-06T13:14:08.823Z,39.16
2019-05-06T13:16:39.506Z,39.42
2019-05-06T13:19:12.142Z,39.76
2019-05-06T13:21:43.984Z,39.73
2019-05-06T13:24:15.612Z,39.74
2019-05-06T13:26:46.200Z,39.26
2019-05-06T13:29:22.746Z,39.64
2019-05-06T13:31:53.430Z,39.64
2019-05-06T13:34:25.347Z,39.33
2019-05-06T13:36:56.313Z,38.52
2019-05-06T13:39:27.090Z,38.65
2019-05-06T13:41:57.512Z,38.63
2019-05-06T13:44:29.036Z,38.75
2019-05-06T13:47:02.756Z,38.92
2019-05-06T13:49:35.398Z,38.91
2019-05-06T13:52:07.471Z,39.17
2019-05-06T13:54:38.050Z,39.51
2019-05-06T13:57:08.840Z,39.79
2019-05-06T13:59:40.432Z,40.03
2019-05-06T14:02:21.598Z,39.98
2019-05-06T14:04:52.929Z,40.16
2019-05-06T14:07:24.189Z,40.13
2019-05-06T14:09:55.317Z,40.01
2019-05-06T14:12:32.958Z,40.70
2019-05-06T14:15:04.528Z,39.81
2019-05-06T14:17:35.251Z,39.94
2019-05-06T14:20:09.783Z,40.37
2019-05-06T14:22:40.262Z,39.53
2019-05-06T14:25:12.782Z,39.64
2019-05-06T14:27:45.013Z,39.58
2019-05-06T14:30:37.677Z,39.64
2019-05-06T14:33:09.079Z,39.63
2019-05-06T14:35:42.911Z,39.76
2019-05-06T14:38:13.743Z,39.78
2019-05-06T14:41:07.200Z,40.02
2019-05-06T14:43:33.496Z,39.67
2019-05-06T14:46:03.982Z,40.10
2019-05-06T14:48:34.968Z,40.05
2019-05-06T14:51:06.543Z,39.61
2019-05-06T14:53:38.180Z,39.53
2019-05-06T14:56:13.065Z,39.53
2019-05-06T14:58:45.219Z,39.24
2019-05-06T15:01:15.816Z,39.82
2019-05-06T15:03:46.375Z,39.29
2019-05-06T15:06:16.887Z,38.89
2019-05-06T15:08:47.533Z,38.96
2019-05-06T15:11:23.028Z,39.15
2019-05-06T15:13:53.658Z,39.03
2019-05-06T15:16:24.264Z,38.41
2019-05-06T15:18:55.874Z,38.54
2019-05-06T15:21:37.131Z,38.25
2019-05-06T15:23:58.653Z,38.02
2019-05-06T15:26:29.222Z,38.36
2019-05-06T15:29:00.145Z,38.05
2019-05-06T15:31:35.030Z,38.04
2019-05-06T15:34:07.116Z,38.25
2019-05-06T15:36:39.298Z,38.67
2019-05-06T15:39:13.256Z,38.91
2019-05-06T15:41:46.768Z,39.09
2019-05-06T15:44:17.457Z,39.28
2019-05-06T15:46:52.354Z,39.53
2019-05-06T15:49:22.761Z,38.56
2019-05-06T15:51:53.170Z,38.42
2019-05-06T15:54:23.975Z,38.10
2019-05-06T15:56:54.603Z,38.28
2019-05-06T15:59:25.096Z,38.42
2019-05-06T16:01:56.816Z,38.56
2019-05-06T16:04:27.406Z,38.84
2019-05-06T16:06:57.931Z,38.70
2019-05-06T16:09:32.476Z,38.63
2019-05-06T16:12:07.537Z,38.86
2019-05-06T16:14:38.184Z,39.14
2019-05-06T16:17:08.747Z,39.20
2019-05-06T16:19:39.378Z,39.53
2019-05-06T16:22:10.001Z,40.10
2019-05-06T16:24:45.272Z,40.60
2019-05-06T16:27:16.893Z,40.96
2019-05-06T16:29:47.952Z,41.51
2019-05-06T16:32:18.566Z,41.97
2019-05-06T16:34:49.150Z,42.43
2019-05-06T16:37:22.117Z,42.59
2019-05-06T16:39:54.457Z,42.77
2019-05-06T16:42:26.339Z,43.04
2019-05-06T16:44:57.026Z,43.33
2019-05-06T16:47:37.614Z,43.43
2019-05-06T16:50:22.412Z,43.34
2019-05-06T16:52:52.754Z,43.74
2019-05-06T16:55:26.293Z,43.41
2019-05-06T16:58:03.442Z,43.56
2019-05-06T17:00:36.002Z,43.73
2019-05-06T17:03:14.436Z,43.52
2019-05-06T17:05:51.990Z,43.52
2019-05-06T17:08:23.452Z,43.90
2019-05-06T17:10:54.069Z,44.04
2019-05-06T17:13:24.777Z,44.04
2019-05-06T17:15:55.926Z,44.22
2019-05-06T17:18:27.628Z,43.98
2019-05-06T17:20:59.447Z,43.99
2019-05-06T17:23:32.497Z,44.49
2019-05-06T17:26:03.109Z,44.60
2019-05-06T17:28:45.321Z,44.82
2019-05-06T17:31:26.379Z,45.28
2019-05-06T17:33:58.883Z,45.41
2019-05-06T17:36:33.720Z,45.54
2019-05-06T17:39:07.277Z,45.41
2019-05-06T17:41:48.209Z,47.57
2019-05-06T17:44:13.958Z,48.22
2019-05-06T17:46:49.039Z,48.94
2019-05-06T17:49:27.152Z,48.78
2019-05-06T17:52:16.030Z,49.13
2019-05-06T17:54:46.537Z,49.84
2019-05-06T17:57:17.183Z,50.88
2019-05-06T17:59:48.663Z,50.27
2019-05-06T18:02:22.800Z,50.55
2019-05-06T18:04:53.503Z,50.98
2019-05-06T18:07:26.037Z,51.48
2019-05-06T18:09:57.549Z,51.03
2019-05-06T18:12:28.080Z,47.76
2019-05-06T18:15:02.555Z,47.33
2019-05-06T18:17:33.745Z,47.28
2019-05-06T18:20:05.658Z,47.36
2019-05-06T18:22:36.230Z,47.54
2019-05-06T18:25:06.940Z,47.75
2019-05-06T18:27:37.419Z,47.83
2019-05-06T18:30:17.670Z,48.01
2019-05-06T18:32:42.343Z,48.09
2019-05-06T18:35:13.167Z,48.38
2019-05-06T18:37:43.699Z,49.56
2019-05-06T18:40:14.281Z,49.17
2019-05-06T18:42:44.940Z,48.58
2019-05-06T18:45:16.452Z,48.63
2019-05-06T18:47:46.922Z,48.71
2019-05-06T18:50:17.426Z,48.72
2019-05-06T18:52:48.938Z,48.55
2019-05-06T18:55:22.338Z,48.58
2019-05-06T18:57:52.874Z,48.41
2019-05-06T19:00:24.603Z,48.32
2019-05-06T19:02:56.094Z,48.65
2019-05-06T19:05:34.928Z,48.80
2019-05-06T19:08:07.404Z,48.92
2019-05-06T19:10:37.915Z,49.02
2019-05-06T19:13:12.536Z,49.21
2019-05-06T19:15:43.621Z,49.30
2019-05-06T19:18:14.106Z,49.44
2019-05-06T19:20:44.704Z,49.60
2019-05-06T19:23:15.368Z,49.58
2019-05-06T19:25:46.852Z,49.68
2019-05-06T19:28:22.297Z,49.72
2019-05-06T19:30:54.135Z,49.89
2019-05-06T19:33:27.162Z,49.85
2019-05-06T19:35:57.696Z,49.78
2019-05-06T19:38:28.167Z,49.84
2019-05-06T19:40:58.629Z,49.65
2019-05-06T19:43:29.109Z,50.03
2019-05-06T19:46:02.433Z,49.86
2019-05-06T19:48:32.909Z,49.81
2019-05-06T19:51:03.462Z,49.88
2019-05-06T19:53:33.967Z,49.82
2019-05-06T19:56:04.366Z,49.86
2019-05-06T19:58:35.406Z,50.04
2019-05-06T20:01:05.954Z,50.00
2019-05-06T20:03:36.369Z,50.12
2019-05-06T20:06:24.860Z,50.66
2019-05-06T20:09:16.566Z,50.66
2019-05-06T20:11:47.769Z,50.42
2019-05-06T20:14:18.268Z,50.85
2019-05-06T20:16:48.727Z,50.96
2019-05-06T20:19:29.863Z,51.19
2019-05-06T20:21:52.894Z,51.57
2019-05-06T20:24:23.407Z,51.97
2019-05-06T20:26:53.934Z,52.37
2019-05-06T20:29:24.462Z,52.47
2019-05-06T20:31:55.001Z,52.64
2019-05-06T20:34:26.486Z,53.05
2019-05-06T20:36:58.955Z,53.19
2019-05-06T20:39:29.540Z,53.38
2019-05-06T20:42:00.067Z,53.49
2019-05-06T20:44:32.409Z,53.48
2019-05-06T20:47:03.193Z,53.60
2019-05-06T20:49:34.068Z,53.56
2019-05-06T20:52:04.546Z,53.70
2019-05-06T20:54:35.004Z,53.84
2019-05-06T20:57:05.523Z,53.96
2019-05-06T20:59:36.015Z,54.25
2019-05-06T21:02:06.691Z,54.35
2019-05-06T21:04:38.115Z,54.77
2019-05-06T21:07:08.648Z,54.68
2019-05-06T21:09:39.146Z,55.29
2019-05-06T21:12:12.652Z,55.21
2019-05-06T21:14:46.467Z,55.69
2019-05-06T21:17:16.967Z,55.98
2019-05-06T21:19:47.491Z,56.43
2019-05-06T21:22:19.896Z,56.46
2019-05-06T21:24:50.371Z,56.65
2019-05-06T21:27:23.073Z,57.05
2019-05-06T21:29:53.510Z,57.14
2019-05-06T21:32:24.871Z,57.42
2019-05-06T21:34:55.490Z,57.51
2019-05-06T21:37:25.860Z,57.82
2019-05-06T21:39:57.235Z,57.88
2019-05-06T21:42:27.593Z,58.10
2019-05-06T21:44:58.150Z,58.23
2019-05-06T21:47:28.640Z,58.32
2019-05-06T21:49:59.111Z,58.25
2019-05-06T21:52:39.295Z,58.06
2019-05-06T21:55:02.566Z,58.05
2019-05-06T21:57:36.711Z,58.72
2019-05-06T22:00:12.525Z,58.94
2019-05-06T22:02:43.853Z,59.14
2019-05-06T22:05:22.689Z,59.24
2019-05-06T22:07:54.349Z,59.16
2019-05-06T22:10:25.185Z,59.39
2019-05-06T22:12:55.795Z,59.44
2019-05-06T22:15:26.204Z,59.69
2019-05-06T22:17:57.774Z,59.45
2019-05-06T22:20:28.201Z,59.25
2019-05-06T22:22:58.728Z,59.47
2019-05-06T22:25:29.160Z,59.19
2019-05-06T22:28:02.469Z,59.31
2019-05-06T22:30:32.964Z,59.29
2019-05-06T22:33:04.096Z,59.01
2019-05-06T22:35:38.899Z,58.97
2019-05-06T22:38:09.347Z,59.21
2019-05-06T22:40:39.816Z,59.39
2019-05-06T22:43:12.317Z,59.29
2019-05-06T22:45:42.964Z,59.31
2019-05-06T22:48:13.408Z,59.44
2019-05-06T22:50:44.831Z,59.47
2019-05-06T22:53:15.305Z,59.81
2019-05-06T22:55:45.796Z,59.91
2019-05-06T22:58:16.287Z,60.07
2019-05-06T23:00:53.757Z,59.91
2019-05-06T23:03:26.974Z,60.08
2019-05-06T23:05:57.435Z,60.37
2019-05-06T23:08:28.868Z,60.82
2019-05-06T23:10:59.350Z,60.76
2019-05-06T23:13:31.978Z,60.96
2019-05-06T23:16:02.509Z,61.16
2019-05-06T23:18:33.013Z,61.36
2019-05-06T23:21:05.502Z,61.32
2019-05-06T23:23:36.101Z,61.48
2019-05-06T23:26:23.641Z,61.47
2019-05-06T23:28:54.158Z,61.71
2019-05-06T23:31:24.730Z,61.68
2019-05-06T23:33:55.345Z,61.79
2019-05-06T23:36:28.702Z,61.76
2019-05-06T23:39:18.485Z,61.82
2019-05-06T23:42:07.004Z,61.92
2019-05-06T23:44:55.582Z,61.70
2019-05-06T23:47:44.157Z,61.80
2019-05-06T23:50:32.461Z,61.55
2019-05-06T23:53:22.962Z,61.70
2019-05-06T23:56:13.183Z,61.38
2019-05-06T23:58:46.134Z,61.63
